Time;durP1;ratioP1;P1;durP2;ratioP2;P2;SDS_P1;SDS_P2;PMS_P1;PMS_P2;Temp;Humidity;BMP_temperature;BMP_pressure;BME280_temperature;BME280_humidity;BME280_pressure;Samples;Min_cycle;Max_cycle;Signal;HPM_P1;HPM_P2
2021/08/07 00:05:42;;;;;;;;;28.25;26.75;;;;;19.89;54.76;100134.50;4980646;28;44829;-93
2021/08/07 00:08:29;;;;;;;;;12.25;11.25;;;;;19.70;54.41;100100.59;4981733;28;44720;-93
2021/08/07 00:11:05;;;;;;;;;8.25;8.25;;;;;19.62;54.68;100096.03;4982433;28;44807;-95
2021/08/07 00:13:40;;;;;;;;;19.50;19.50;;;;;19.83;55.12;100135.16;4966818;28;45267;-95
2021/08/07 00:16:09;;;;;;;;;22.75;22.75;;;;;19.80;54.57;100132.78;4979975;28;44744;-93
2021/08/07 00:18:58;;;;;;;;;36.50;35.00;;;;;19.76;55.21;100133.13;4978092;28;44895;-95
2021/08/07 00:21:27;;;;;;;;;19.75;19.75;;;;;19.51;54.89;100098.06;4982378;28;44906;-93
2021/08/07 00:23:58;;;;;;;;;7.75;7.75;;;;;19.63;55.16;100130.91;4951907;28;45198;-93
2021/08/07 00:26:29;;;;;;;;;21.00;19.75;;;;;19.36;55.40;100089.75;4967160;28;44664;-94
2021/08/07 00:29:03;;;;;;;;;23.75;23.25;;;;;19.55;55.47;100130.06;4967151;28;44726;-93
2021/08/07 00:31:29;;;;;;;;;17.25;17.25;;;;;19.49;55.56;100128.84;4966190;28;44943;-94
2021/08/07 00:33:56;;;;;;;;;15.50;14.25;;;;;19.27;55.85;100095.28;4966045;28;45446;-94
2021/08/07 00:36:24;;;;;;;;;15.75;15.75;;;;;19.44;55.96;100126.69;4951003;28;44795;-94
2021/08/07 00:38:51;;;;;;;;;11.00;11.00;;;;;19.24;55.98;100085.69;4964438;28;44690;-94
2021/08/07 00:41:18;;;;;;;;;19.75;18.75;;;;;19.16;55.90;100078.41;4965375;28;44859;-94
2021/08/07 00:43:44;;;;;;;;;23.25;23.25;;;;;19.32;55.77;100106.41;4963933;28;45299;-94
2021/08/07 00:46:09;;;;;;;;;20.75;20.75;;;;;19.12;55.77;100066.28;4965228;28;44740;-95
2021/08/07 00:48:38;;;;;;;;;21.00;18.75;;;;;19.25;55.95;100092.75;4954377;28;44809;-93
2021/08/07 00:51:08;;;;;;;;;24.00;22.25;;;;;19.35;55.92;100119.56;4965648;28;44926;-93
2021/08/07 00:53:47;;;;;;;;;13.25;13.25;;;;;19.31;56.20;100110.13;4982822;28;45174;-93
2021/08/07 00:56:19;;;;;;;;;22.50;22.50;;;;;19.11;56.02;100075.34;4984141;28;45048;-93
2021/08/07 00:58:50;;;;;;;;;19.75;19.75;;;;;19.18;56.17;100089.03;4985294;28;44746;-93
2021/08/07 01:01:18;;;;;;;;;18.25;18.25;;;;;19.15;56.08;100081.25;4983163;28;44823;-94
2021/08/07 01:04:35;;;;;;;;;19.00;19.00;;;;;19.28;56.26;100108.59;4982837;28;45293;-94
2021/08/07 01:07:28;;;;;;;;;10.00;8.25;;;;;19.29;56.19;100104.88;4984206;28;44776;-94
2021/08/07 01:10:09;;;;;;;;;13.75;13.75;;;;;19.26;56.45;100099.81;4985681;28;44748;-93
2021/08/07 01:12:56;;;;;;;;;13.75;13.50;;;;;19.10;56.39;100084.44;4955163;28;44866;-93
2021/08/07 01:15:40;;;;;;;;;18.00;18.00;;;;;19.13;56.68;100087.66;4983077;28;45025;-93
2021/08/07 01:18:12;;;;;;;;;21.50;18.25;;;;;19.02;56.25;100068.22;4969673;28;44756;-91
2021/08/07 01:20:44;;;;;;;;;27.00;27.00;;;;;19.17;56.09;100108.91;4986099;28;44781;-94
2021/08/07 01:23:22;;;;;;;;;15.25;15.25;;;;;19.15;56.34;100098.28;4965659;28;45014;-93
2021/08/07 01:26:08;;;;;;;;;16.00;13.75;;;;;19.17;56.41;100095.44;4987050;28;45144;-94
2021/08/07 01:28:38;;;;;;;;;21.50;17.75;;;;;19.05;56.33;100087.59;4932599;28;44870;-91
2021/08/07 01:31:05;;;;;;;;;19.25;18.00;;;;;19.14;56.56;100101.97;4914998;28;44935;-94
2021/08/07 01:33:33;;;;;;;;;32.00;32.00;;;;;19.09;56.37;100099.78;4932672;28;44862;-94
2021/08/07 01:36:02;;;;;;;;;21.25;21.25;;;;;18.89;56.40;100072.22;4938455;28;45230;-94
2021/08/07 01:38:31;;;;;;;;;10.25;9.00;;;;;19.05;56.23;100082.19;4912310;28;44915;-93
2021/08/07 01:40:59;;;;;;;;;9.75;9.75;;;;;18.89;56.42;100083.00;4894881;29;44816;-94
2021/08/07 01:43:27;;;;;;;;;7.50;5.75;;;;;18.82;56.18;100063.94;4926817;28;44846;-92
2021/08/07 01:45:55;;;;;;;;;0.00;0.00;;;;;18.94;56.54;100090.56;4914868;28;45024;-92
2021/08/07 01:48:51;;;;;;;;;18.00;18.00;;;;;18.73;56.54;100054.16;4950111;28;44820;-91
2021/08/07 01:51:24;;;;;;;;;15.50;15.50;;;;;18.70;56.64;100046.38;4928992;28;44813;-95
2021/08/07 01:53:56;;;;;;;;;7.75;7.75;;;;;18.87;56.29;100082.31;4918921;28;44787;-90
2021/08/07 01:56:33;;;;;;;;;16.50;16.50;;;;;18.75;56.35;100062.88;4942602;28;45264;-93
2021/08/07 01:59:07;;;;;;;;;13.25;13.25;;;;;18.85;56.58;100074.38;4922544;28;44871;-93
2021/08/07 02:01:57;;;;;;;;;23.50;23.50;;;;;18.82;56.54;100072.00;4935696;28;44761;-94
2021/08/07 02:04:31;;;;;;;;;20.50;19.00;;;;;18.86;56.50;100086.84;4964703;28;44859;-95
2021/08/07 02:07:05;;;;;;;;;27.00;27.00;;;;;18.85;56.74;100076.22;4985967;28;45238;-94
2021/08/07 02:09:36;;;;;;;;;25.00;25.00;;;;;18.69;56.61;100050.91;4985455;28;44872;-94
2021/08/07 02:12:09;;;;;;;;;7.50;7.50;;;;;18.70;56.44;100049.91;4982487;28;44858;-94
2021/08/07 02:14:42;;;;;;;;;28.00;27.25;;;;;18.71;56.91;100050.75;4987021;28;44843;-94
2021/08/07 02:17:25;;;;;;;;;26.75;26.75;;;;;18.69;56.67;100050.06;4984205;28;45050;-94
2021/08/07 02:19:55;;;;;;;;;14.75;13.00;;;;;18.82;56.62;100074.69;4967965;28;44842;-95
2021/08/07 02:22:23;;;;;;;;;13.00;10.75;;;;;18.59;56.51;100036.72;4957739;28;44788;-94
2021/08/07 02:24:53;;;;;;;;;23.00;23.00;;;;;18.49;56.85;100020.69;4971332;28;44792;-93
2021/08/07 02:27:25;;;;;;;;;19.50;19.50;;;;;18.71;57.16;100067.75;4957415;28;45228;-94
2021/08/07 02:29:53;;;;;;;;;35.25;30.00;;;;;18.59;56.76;100042.09;4966505;28;44876;-94
2021/08/07 02:32:21;;;;;;;;;24.25;21.50;;;;;18.70;56.99;100063.38;4980051;28;44775;-92
2021/08/07 02:34:50;;;;;;;;;15.25;15.25;;;;;18.47;56.88;100015.47;4965333;28;44835;-93
2021/08/07 02:37:21;;;;;;;;;29.50;29.50;;;;;18.54;57.00;100018.38;4970426;28;45214;-92
2021/08/07 02:39:54;;;;;;;;;20.00;20.00;;;;;18.48;57.05;100011.78;4971589;28;44774;-92
2021/08/07 02:42:23;;;;;;;;;14.50;14.50;;;;;18.61;56.86;100023.97;5003857;22;45937;-92
2021/08/07 02:44:54;;;;;;;;;27.50;26.50;;;;;18.60;56.97;100025.81;4964687;28;44812;-92
2021/08/07 02:47:25;;;;;;;;;30.00;30.00;;;;;18.55;56.96;100014.69;4947592;28;45161;-92
2021/08/07 02:49:54;;;;;;;;;27.00;26.25;;;;;18.63;56.82;100021.94;4960938;28;44875;-94
2021/08/07 02:52:21;;;;;;;;;29.50;29.50;;;;;18.56;57.05;100000.22;4953928;28;44777;-92
2021/08/07 02:54:53;;;;;;;;;26.25;26.25;;;;;18.72;56.73;100020.97;4945745;28;45024;-93
2021/08/07 02:57:19;;;;;;;;;26.25;24.50;;;;;18.82;56.90;100034.31;4959179;28;45282;-92
2021/08/07 02:59:52;;;;;;;;;36.50;35.25;;;;;18.68;57.04;100000.78;4954231;28;44852;-93
2021/08/07 03:02:19;;;;;;;;;24.75;24.75;;;;;18.74;57.06;100016.28;4964003;28;44788;-93
2021/08/07 03:04:48;;;;;;;;;18.75;18.50;;;;;18.71;56.98;100005.84;4947982;28;44788;-92
2021/08/07 03:07:17;;;;;;;;;28.25;28.25;;;;;18.71;57.20;99999.59;4983288;28;45118;-93
2021/08/07 03:09:45;;;;;;;;;17.00;15.00;;;;;18.78;57.15;100018.63;4951969;28;44761;-92
2021/08/07 03:12:15;;;;;;;;;12.00;10.25;;;;;18.77;57.16;100015.13;4948633;28;44950;-91
2021/08/07 03:14:48;;;;;;;;;19.00;19.00;;;;;18.66;57.20;99997.38;4965877;28;44799;-93
2021/08/07 03:17:29;;;;;;;;;8.75;7.00;;;;;18.59;57.27;99970.28;4968023;28;45308;-93
2021/08/07 03:19:56;;;;;;;;;25.50;23.50;;;;;18.69;57.43;99985.44;4966875;28;44876;-94
2021/08/07 03:22:24;;;;;;;;;24.00;24.00;;;;;18.89;57.72;100021.06;4947123;28;44780;-94
2021/08/07 03:24:51;;;;;;;;;20.00;19.75;;;;;18.73;57.69;99986.84;4941662;28;44989;-94
2021/08/07 03:27:18;;;;;;;;;30.50;29.00;;;;;18.92;57.28;100023.41;4926907;28;45017;-93
2021/08/07 03:29:46;;;;;;;;;31.50;28.50;;;;;18.93;57.68;100010.78;4953562;28;44876;-93
2021/08/07 03:32:21;;;;;;;;;27.00;26.00;;;;;18.92;57.64;100004.53;4945023;28;44726;-94
2021/08/07 03:34:47;;;;;;;;;20.50;18.75;;;;;18.90;57.51;100009.28;4945261;28;44875;-94
2021/08/07 03:37:14;;;;;;;;;27.50;27.50;;;;;18.77;57.48;99982.81;4947638;28;45238;-92
2021/08/07 03:39:41;;;;;;;;;9.00;9.00;;;;;18.85;57.59;99998.97;4950095;28;44773;-93
2021/08/07 03:42:06;;;;;;;;;27.25;27.25;;;;;18.77;57.62;99987.34;4924993;28;44880;-93
2021/08/07 03:44:36;;;;;;;;;25.50;25.50;;;;;18.70;57.77;99974.50;4931644;28;45012;-94
2021/08/07 03:47:16;;;;;;;;;28.50;28.50;;;;;18.74;57.87;99983.97;4946456;28;45256;-94
2021/08/07 03:49:46;;;;;;;;;23.50;23.50;;;;;18.53;57.92;99949.38;4946308;28;44817;-94
2021/08/07 03:52:16;;;;;;;;;23.25;23.00;;;;;18.65;57.99;99966.09;4962945;28;44827;-93
2021/08/07 03:54:47;;;;;;;;;42.00;36.00;;;;;18.77;57.89;99987.34;4965727;28;44911;-92
2021/08/07 03:57:15;;;;;;;;;31.00;31.00;;;;;18.51;58.24;99942.47;4956973;28;45155;-95
2021/08/07 03:59:41;;;;;;;;;18.25;17.50;;;;;18.71;58.24;99975.38;4968185;28;44966;-92
2021/08/07 04:02:11;;;;;;;;;23.25;23.25;;;;;18.69;58.32;99972.84;4963862;28;44883;-92
2021/08/07 04:04:40;;;;;;;;;16.75;16.75;;;;;18.58;58.17;99951.59;4932488;28;44952;-93
2021/08/07 04:07:06;;;;;;;;;16.25;14.50;;;;;18.63;58.40;99965.41;4949477;28;45125;-93
2021/08/07 04:09:39;;;;;;;;;19.75;18.25;;;;;18.55;58.68;99946.53;4955561;28;44789;-94
2021/08/07 04:12:16;;;;;;;;;24.50;23.50;;;;;18.43;58.56;99929.84;4941391;28;44855;-94
2021/08/07 04:14:43;;;;;;;;;16.75;16.75;;;;;18.56;58.30;99940.13;4936815;28;44892;-94
2021/08/07 04:17:11;;;;;;;;;30.00;30.00;;;;;18.58;58.63;99951.59;4960509;28;45142;-95
2021/08/07 04:19:41;;;;;;;;;25.50;25.50;;;;;18.58;58.65;99965.91;4916461;28;44806;-92
2021/08/07 04:22:07;;;;;;;;;40.00;36.50;;;;;18.48;59.08;99954.44;4944796;28;44865;-92
2021/08/07 04:24:35;;;;;;;;;23.00;23.00;;;;;18.59;59.07;99990.97;4914638;28;44857;-93
2021/08/07 04:27:04;;;;;;;;;14.75;14.75;;;;;18.54;59.19;99983.41;4938334;28;45366;-93
2021/08/07 04:29:42;;;;;;;;;38.50;36.25;;;;;18.49;59.26;99985.72;4925590;28;44993;-93
2021/08/07 04:32:19;;;;;;;;;16.50;16.25;;;;;18.44;59.32;99967.34;4956131;28;44756;-95
2021/08/07 04:35:12;;;;;;;;;17.25;17.00;;;;;18.36;59.88;99959.25;4924759;28;44776;-95
2021/08/07 04:37:51;;;;;;;;;25.50;25.50;;;;;18.26;59.82;99945.06;4943351;28;45306;-95
2021/08/07 04:40:23;;;;;;;;;40.25;36.50;;;;;18.29;59.63;99944.75;4927610;28;44964;-93
2021/08/07 04:42:51;;;;;;;;;18.00;18.00;;;;;18.26;59.87;99932.47;4960864;28;44763;-94
2021/08/07 04:45:35;;;;;;;;;18.50;14.25;;;;;18.43;60.29;99962.13;4955625;28;44911;-94
2021/08/07 04:48:07;;;;;;;;;28.00;28.00;;;;;18.38;59.82;99970.72;4950919;28;45102;-93
2021/08/07 04:51:06;;;;;;;;;35.00;31.00;;;;;18.06;59.67;99926.44;4945723;28;44918;-93
2021/08/07 04:53:38;;;;;;;;;32.25;32.25;;;;;18.14;59.91;99941.81;4963919;28;44704;-94
2021/08/07 04:56:10;;;;;;;;;43.00;39.25;;;;;18.08;60.30;99924.44;4974088;28;44819;-95
2021/08/07 04:58:47;;;;;;;;;18.75;18.75;;;;;18.26;60.27;99951.31;4930264;28;45183;-95
2021/08/07 05:01:24;;;;;;;;;23.75;23.25;;;;;18.14;60.43;99939.97;4928926;28;44914;-96
2021/08/07 05:03:57;;;;;;;;;30.25;28.50;;;;;18.12;60.67;99939.31;4960665;28;44758;-96
2021/08/07 05:06:28;;;;;;;;;16.50;16.50;;;;;18.27;60.57;99962.91;4960154;28;44759;-96
2021/08/07 05:08:54;;;;;;;;;9.50;9.25;;;;;18.21;60.43;99957.16;4930804;28;45259;-94
2021/08/07 05:11:24;;;;;;;;;27.50;26.25;;;;;18.08;60.54;99938.72;4939179;28;44872;-94
2021/08/07 05:13:50;;;;;;;;;29.25;28.75;;;;;18.19;60.67;99951.09;4964695;28;44747;-93
2021/08/07 05:16:18;;;;;;;;;28.75;26.50;;;;;18.20;60.97;99958.16;4946331;28;44840;-93
2021/08/07 05:19:17;;;;;;;;;34.00;33.00;;;;;17.93;60.57;99902.69;4945715;28;44996;-96
2021/08/07 05:21:47;;;;;;;;;14.50;14.50;;;;;17.95;60.77;99914.97;4935354;28;45041;-94
2021/08/07 05:24:17;;;;;;;;;37.50;36.00;;;;;18.03;60.68;99924.94;4946220;28;44729;-94
2021/08/07 05:26:49;;;;;;;;;33.25;33.25;;;;;18.20;60.81;99949.25;4944793;28;44800;-92
2021/08/07 05:29:19;;;;;;;;;22.00;22.00;;;;;17.98;61.13;99901.19;4932216;28;45210;-92
2021/08/07 05:31:53;;;;;;;;;22.50;22.50;;;;;18.21;60.92;99922.19;4941661;28;45118;-94
2021/08/07 05:34:56;;;;;;;;;28.25;26.25;;;;;17.93;60.96;99881.16;4942435;28;44939;-94
2021/08/07 05:37:31;;;;;;;;;39.00;36.00;;;;;18.22;61.03;99915.78;4957524;28;44885;-94
2021/08/07 05:40:00;;;;;;;;;29.25;27.75;;;;;18.03;61.07;99887.28;4965588;28;45332;-92
2021/08/07 05:42:35;;;;;;;;;44.25;40.25;;;;;18.11;60.81;99899.94;4946769;28;45083;-93
2021/08/07 05:45:25;;;;;;;;;27.50;26.00;;;;;18.20;60.95;99909.75;4978344;28;44804;-94
2021/08/07 05:47:53;;;;;;;;;28.00;27.50;;;;;18.20;60.87;99898.97;4955349;28;44942;-94
2021/08/07 05:50:21;;;;;;;;;29.75;29.75;;;;;18.33;60.77;99914.66;4969756;28;45251;-93
2021/08/07 05:52:53;;;;;;;;;26.75;22.75;;;;;18.45;60.76;99920.63;4939252;28;44870;-94
2021/08/07 05:55:30;;;;;;;;;20.75;19.50;;;;;18.33;60.47;99890.44;4938362;28;44903;-95
2021/08/07 05:58:03;;;;;;;;;22.50;22.50;;;;;18.58;60.37;99922.00;4937070;28;44838;-94
2021/08/07 06:00:38;;;;;;;;;31.25;29.75;;;;;18.46;60.36;99900.75;4938748;28;45228;-94
2021/08/07 06:03:05;;;;;;;;;28.75;27.00;;;;;18.52;60.47;99901.09;4960028;28;44873;-91
2021/08/07 06:05:46;;;;;;;;;15.25;14.50;;;;;18.61;60.37;99914.44;4948782;28;44854;-94
2021/08/07 06:08:15;;;;;;;;;30.00;27.00;;;;;18.72;60.46;99925.88;4945324;28;44858;-95
2021/08/07 06:10:50;;;;;;;;;34.75;33.50;;;;;18.56;60.65;99880.91;4933598;28;45255;-93
2021/08/07 06:13:19;;;;;;;;;30.25;30.25;;;;;18.82;60.41;99925.75;4962951;28;44944;-94
2021/08/07 06:15:55;;;;;;;;;18.75;18.00;;;;;18.71;60.26;99892.75;4945410;28;44868;-95
2021/08/07 06:18:41;;;;;;;;;13.25;13.25;;;;;18.87;60.27;99916.19;4945041;28;45720;-95
2021/08/07 06:21:16;;;;;;;;;26.00;26.00;;;;;19.07;60.19;99932.06;4893491;28;45093;-94
2021/08/07 06:23:53;;;;;;;;;32.75;32.50;;;;;18.78;59.79;99874.06;4914021;29;44890;-95
2021/08/07 06:26:22;;;;;;;;;28.00;27.25;;;;;18.88;60.11;99879.31;4908457;29;44826;-95
2021/08/07 06:28:50;;;;;;;;;17.25;16.75;;;;;19.22;59.75;99929.56;4901781;29;44952;-94
2021/08/07 06:31:28;;;;;;;;;21.50;21.50;;;;;18.98;59.81;99882.69;4906493;28;45019;-96
2021/08/07 06:33:57;;;;;;;;;20.75;19.00;;;;;19.21;59.58;99910.88;4902197;29;44831;-94
2021/08/07 06:36:34;;;;;;;;;16.50;15.25;;;;;19.27;59.60;99923.63;4917383;29;44993;-93
2021/08/07 06:39:02;;;;;;;;;6.75;5.50;;;;;18.97;59.54;99864.84;4926634;28;44917;-94
2021/08/07 06:41:40;;;;;;;;;25.00;25.00;;;;;19.24;59.25;99910.53;4911683;28;45124;-94
2021/08/07 06:44:10;;;;;;;;;23.00;22.25;;;;;19.13;59.76;99888.28;4874645;29;44846;-93
2021/08/07 06:46:47;;;;;;;;;12.00;12.00;;;;;19.29;59.18;99913.53;4874377;29;44962;-93
2021/08/07 06:49:17;;;;;;;;;35.25;30.75;;;;;19.04;59.53;99873.09;4891920;29;44947;-91
2021/08/07 06:51:50;;;;;;;;;25.50;24.25;;;;;19.13;59.47;99884.75;4862056;28;45555;-94
2021/08/07 06:54:18;;;;;;;;;29.00;27.50;;;;;19.33;59.60;99916.72;4865866;29;44882;-95
2021/08/07 06:56:48;;;;;;;;;22.75;22.75;;;;;19.09;59.08;99861.84;4887853;29;44770;-94
2021/08/07 06:59:14;;;;;;;;;18.75;17.25;;;;;19.34;59.24;99894.19;4908650;28;44870;-95
2021/08/07 07:01:40;;;;;;;;;12.00;12.00;;;;;19.17;59.34;99864.53;4899976;29;45200;-93
2021/08/07 07:04:09;;;;;;;;;26.00;25.00;;;;;19.38;59.56;99917.09;4878748;29;44826;-94
2021/08/07 07:06:39;;;;;;;;;30.50;30.00;;;;;19.38;59.42;99901.75;4898718;29;44778;-95
2021/08/07 07:11:43;;;;;;;;;29.00;28.25;;;;;19.22;59.46;99888.28;5180459;23;45058;-95
2021/08/07 07:14:09;;;;;;;;;24.75;23.25;;;;;19.30;59.32;99901.75;4981373;28;44768;-93
2021/08/07 07:16:37;;;;;;;;;21.75;21.75;;;;;19.05;59.54;99863.16;5001116;28;44840;-95
2021/08/07 07:19:03;;;;;;;;;29.50;29.50;;;;;19.15;59.37;99855.78;4999489;28;44874;-94
2021/08/07 07:21:29;;;;;;;;;26.25;26.25;;;;;19.17;59.48;99852.94;4972549;28;45299;-92
2021/08/07 07:23:57;;;;;;;;;31.25;29.50;;;;;19.47;59.44;99891.78;4992050;28;44871;-95
2021/08/07 07:26:27;;;;;;;;;30.75;29.50;;;;;19.53;59.64;99889.44;4971257;28;44907;-94
2021/08/07 07:28:55;;;;;;;;;26.50;26.50;;;;;19.74;59.21;99905.94;4987594;28;44780;-92
2021/08/07 07:31:22;;;;;;;;;12.75;10.75;;;;;19.63;59.42;99888.25;4982395;28;45306;-95
2021/08/07 07:33:47;;;;;;;;;32.50;32.00;;;;;19.83;58.67;99912.16;4973449;28;44729;-92
2021/08/07 07:36:15;;;;;;;;;24.00;23.50;;;;;19.43;58.80;99827.63;4974180;28;44755;-92
2021/08/07 07:38:40;;;;;;;;;23.75;22.00;;;;;19.84;58.64;99880.59;4989958;28;44799;-90
2021/08/07 07:41:06;;;;;;;;;36.00;34.25;;;;;19.99;58.82;99905.88;4973632;28;45128;-88
2021/08/07 07:43:31;;;;;;;;;28.00;27.00;;;;;19.91;58.82;99876.19;4990587;28;44774;-88
2021/08/07 07:46:00;;;;;;;;;24.00;22.75;;;;;19.95;58.29;99879.41;4988248;28;44712;-89
2021/08/07 07:48:28;;;;;;;;;41.75;36.25;;;;;19.96;58.14;99864.91;4982985;28;44883;-89
2021/08/07 07:50:53;;;;;;;;;37.25;34.75;;;;;19.85;58.34;99837.28;4986433;28;45182;-94
2021/08/07 07:53:19;;;;;;;;;1.50;1.50;;;;;20.00;57.95;99848.22;4976142;28;44868;-92
2021/08/07 07:55:44;;;;;;;;;22.00;20.25;;;;;19.94;58.07;99840.78;4965119;28;44780;-95
2021/08/07 07:58:10;;;;;;;;;28.25;25.75;;;;;20.07;58.28;99850.22;4960623;28;45002;-92
2021/08/07 08:00:36;;;;;;;;;34.00;32.25;;;;;19.94;58.35;99807.56;4971494;28;45274;-90
2021/08/07 08:03:02;;;;;;;;;14.25;12.50;;;;;20.18;58.16;99832.81;4970024;28;45010;-92
2021/08/07 08:05:27;;;;;;;;;24.00;22.50;;;;;20.45;57.85;99839.56;4954349;28;44790;-92
2021/08/07 08:10:30;;;;;;;;;21.25;21.25;;;;;20.64;57.16;99832.88;5092634;22;45100;-90
2021/08/07 08:12:57;;;;;;;;;36.75;34.00;;;;;20.51;56.81;99797.50;4969573;28;44989;-92
2021/08/07 08:15:23;;;;;;;;;13.00;12.25;;;;;20.64;56.72;99807.72;4970017;28;44856;-91
2021/08/07 08:17:48;;;;;;;;;20.75;20.75;;;;;20.95;56.98;99835.72;4985455;28;44851;-91
2021/08/07 08:20:14;;;;;;;;;14.50;14.50;;;;;20.95;56.50;99809.53;4956670;28;46743;-91
2021/08/07 08:22:39;;;;;;;;;7.50;7.00;;;;;21.12;56.44;99826.44;4953646;28;44963;-91
2021/08/07 08:25:08;;;;;;;;;8.00;8.00;;;;;21.41;56.21;99851.88;4956446;28;44801;-93
2021/08/07 08:27:34;;;;;;;;;17.80;17.40;;;;;21.22;55.74;99806.41;4974383;28;44844;-93
2021/08/07 08:30:10;;;;;;;;;23.25;23.25;;;;;21.53;55.44;99840.59;4948059;28;45355;-95
2021/08/07 08:38:49;;;;;;;;;16.40;15.80;;;;;21.93;54.22;99851.16;4102520;26;45463;-95
2021/08/07 08:41:16;;;;;;;;;14.25;14.25;;;;;21.69;54.70;99796.31;4970836;28;45135;-90
2021/08/07 08:43:51;;;;;;;;;5.60;5.00;;;;;21.76;54.88;99801.81;4954712;28;44805;-93
2021/08/07 08:46:21;;;;;;;;;13.25;10.25;;;;;21.90;54.49;99805.53;4948398;28;44683;-94
2021/08/07 08:48:51;;;;;;;;;8.00;6.75;;;;;22.08;54.15;99828.66;4941239;28;44961;-94
2021/08/07 08:51:57;;;;;;;;;16.80;16.80;;;;;22.13;53.94;99818.13;5386105;23;45187;-93
2021/08/07 08:57:22;;;;;;;;;14.20;14.00;;;;;22.03;53.57;99821.09;5426095;22;44923;-92
2021/08/07 09:12:57;;;;;;;;;9.75;8.50;;;;;21.49;55.76;99799.53;5031252;23;45141;-91
2021/08/07 09:15:46;;;;;;;;;15.75;12.50;;;;;21.67;57.68;99838.91;4993326;23;44871;-93
2021/08/07 09:24:34;;;;;;;;;7.00;7.00;;;;;21.31;59.69;99808.03;5003136;28;45489;-95
2021/08/07 09:27:06;;;;;;;;;11.25;10.75;;;;;21.08;58.96;99772.94;4949013;28;44895;-94
2021/08/07 09:32:11;;;;;;;;;24.00;24.00;;;;;21.42;59.55;99810.28;5049826;22;44995;-93
2021/08/07 09:34:45;;;;;;;;;15.00;13.25;;;;;21.35;60.13;99785.00;5009684;28;45232;-92
2021/08/07 09:37:18;;;;;;;;;9.00;9.00;;;;;21.59;59.48;99812.81;5022787;28;44728;-95
2021/08/07 09:39:49;;;;;;;;;13.75;12.75;;;;;21.44;59.53;99761.44;5002019;28;44981;-95
2021/08/07 09:42:15;;;;;;;;;23.75;23.75;;;;;21.72;59.37;99792.38;5007744;28;44850;-95
2021/08/07 09:44:42;;;;;;;;;13.75;13.50;;;;;21.70;59.56;99797.13;4984494;28;45048;-93
2021/08/07 09:47:18;;;;;;;;;20.75;20.75;;;;;21.79;58.94;99809.56;5012249;28;44736;-92
2021/08/07 09:49:45;;;;;;;;;13.25;13.25;;;;;21.82;59.12;99800.22;5026855;28;44867;-94
2021/08/07 09:52:10;;;;;;;;;14.00;14.00;;;;;21.77;58.45;99790.81;4991222;28;44780;-93
2021/08/07 09:54:43;;;;;;;;;21.25;18.50;;;;;21.78;58.73;99806.00;4993359;23;46010;-93
2021/08/07 09:57:23;;;;;;;;;27.25;27.25;;;;;21.76;58.97;99805.38;5002423;28;44785;-94
2021/08/07 09:59:54;;;;;;;;;10.50;8.75;;;;;21.56;58.73;99772.63;5033312;23;44828;-93
2021/08/07 10:02:37;;;;;;;;;16.25;16.25;;;;;21.87;58.10;99811.34;4992154;28;44919;-91
2021/08/07 10:05:05;;;;;;;;;20.75;19.50;;;;;21.86;58.58;99813.19;5011287;28;45207;-93
2021/08/07 10:07:30;;;;;;;;;19.25;19.25;;;;;21.85;57.14;99818.78;4994314;28;44807;-94
2021/08/07 10:09:59;;;;;;;;;5.25;5.25;;;;;21.78;57.10;99806.00;4983550;28;44788;-94
2021/08/07 10:12:27;;;;;;;;;13.25;13.25;;;;;21.52;57.21;99774.03;4959073;28;44893;-94
2021/08/07 10:14:55;;;;;;;;;16.75;16.25;;;;;21.50;57.81;99760.69;5198279;23;46607;-93
2021/08/07 10:17:27;;;;;;;;;27.50;26.50;;;;;21.57;57.67;99768.03;5096860;22;46562;-90
2021/08/07 10:20:15;;;;;;;;;7.50;7.50;;;;;21.71;57.08;99793.41;5062410;23;44782;-94
2021/08/07 10:22:43;;;;;;;;;10.25;9.50;;;;;21.38;57.20;99749.50;4994528;28;44878;-95
2021/08/07 10:25:22;;;;;;;;;3.00;2.00;;;;;21.42;58.12;99748.09;4993902;23;45283;-94
2021/08/07 10:27:58;;;;;;;;;16.50;15.75;;;;;21.41;57.76;99745.56;5741045;22;46015;-92
2021/08/07 10:46:08;;;;;;;;;27.50;27.50;;;;;21.45;59.79;99733.34;5023173;28;45383;-94
2021/08/07 10:49:26;;;;;;;;;23.00;22.75;;;;;21.67;59.55;99758.63;5079466;23;44867;-96
2021/08/07 10:51:54;;;;;;;;;28.00;26.00;;;;;21.70;59.72;99762.81;5006233;28;44638;-91
2021/08/07 10:54:29;;;;;;;;;10.00;10.00;;;;;21.73;58.65;99764.28;5014128;28;44861;-92
2021/08/07 10:57:00;;;;;;;;;29.25;27.50;;;;;21.62;59.32;99738.56;5037159;28;45190;-94
2021/08/07 11:02:19;;;;;;;;;14.50;14.50;;;;;21.72;59.82;99722.03;5646656;23;46183;-94
2021/08/07 11:04:56;;;;;;;;;15.00;15.00;;;;;21.77;58.52;99706.94;4991183;28;44803;-92
2021/08/07 11:07:47;;;;;;;;;13.75;12.25;;;;;22.12;58.72;99762.28;4984854;28;45322;-94
2021/08/07 11:10:42;;;;;;;;;21.00;20.00;;;;;22.29;58.23;99773.72;5061878;22;44827;-94
2021/08/07 11:29:47;;;;;;;;;69.40;62.20;;;;;22.67;55.37;99684.09;6000925;22;46300;-93
2021/08/07 11:36:07;;;;;;;;;33.80;29.60;;;;;22.81;55.16;99709.41;5053450;23;45043;-96
2021/08/07 11:39:07;;;;;;;;;41.60;35.20;;;;;22.84;55.65;99694.63;4908171;28;44845;-93
2021/08/07 11:42:20;;;;;;;;;83.83;80.00;;;;;22.88;55.36;99686.97;4891225;29;45153;-95
2021/08/07 11:44:49;;;;;;;;;83.67;80.17;;;;;22.99;54.49;99690.97;4905153;28;44806;-93
2021/08/07 11:47:46;;;;;;;;;98.75;98.75;;;;;22.96;54.55;99675.16;4876019;28;44911;-95
2021/08/07 11:50:26;;;;;;;;;80.67;76.33;;;;;23.20;54.45;99699.03;4912327;28;44860;-93
2021/08/07 11:53:10;;;;;;;;;107.20;107.20;;;;;23.36;53.86;99713.38;5021622;23;45138;-94
2021/08/07 11:55:39;;;;;;;;;72.50;67.33;;;;;23.25;53.71;99722.84;4988540;28;44752;-91
2021/08/07 11:58:12;;;;;;;;;80.83;76.50;;;;;23.33;53.08;99730.00;4970689;28;44904;-93
2021/08/07 12:01:03;;;;;;;;;108.50;108.50;;;;;23.09;51.32;99705.03;4948191;28;44917;-95
2021/08/07 12:04:19;;;;;;;;;83.50;79.33;;;;;22.96;50.85;99684.09;4987773;28;45132;-95
2021/08/07 12:32:36;;;;;;;;;19.00;18.75;;;;;22.46;52.44;99676.00;5935240;22;46321;-90
2021/08/07 12:35:02;;;;;;;;;2.75;2.75;;;;;22.59;52.19;99686.13;4959562;28;57963;-92
2021/08/07 12:37:27;;;;;;;;;24.75;24.75;;;;;22.61;52.83;99667.81;4959303;28;44745;-89
2021/08/07 12:39:53;;;;;;;;;24.25;24.25;;;;;22.63;53.03;99661.16;4985375;28;45036;-91
2021/08/07 12:42:24;;;;;;;;;35.50;29.00;;;;;22.86;53.25;99686.31;4995197;28;44855;-90
2021/08/07 12:45:18;;;;;;;;;38.60;33.80;;;;;22.81;52.89;99649.81;4977140;28;45188;-91
2021/08/07 12:47:44;;;;;;;;;38.40;33.60;;;;;22.81;52.63;99655.22;4883466;28;44839;-91
2021/08/07 12:50:10;;;;;;;;;37.75;32.50;;;;;22.90;52.85;99655.91;4926938;28;44782;-91
2021/08/07 12:52:52;;;;;;;;;37.40;32.20;;;;;22.85;51.97;99646.72;4921336;28;45015;-90
2021/08/07 12:55:18;;;;;;;;;44.75;39.75;;;;;23.15;52.21;99679.00;4893727;28;45207;-91
2021/08/07 12:57:43;;;;;;;;;79.67;73.67;;;;;22.91;52.05;99665.72;4890996;29;44733;-92
2021/08/07 13:00:13;;;;;;;;;75.80;69.60;;;;;22.81;51.28;99647.09;4873310;29;44769;-91
2021/08/07 13:02:38;;;;;;;;;76.83;71.67;;;;;22.95;51.15;99655.31;4908223;28;45010;-92
2021/08/07 13:05:04;;;;;;;;;75.40;70.20;;;;;23.07;49.58;99683.53;4893126;28;45144;-90
2021/08/07 13:07:34;;;;;;;;;36.80;31.80;;;;;23.18;50.15;99690.28;4893909;28;44807;-91
2021/08/07 13:10:24;;;;;;;;;44.40;38.40;;;;;23.18;50.54;99678.59;4907898;28;44817;-89
2021/08/07 13:12:50;;;;;;;;;37.75;32.75;;;;;22.97;49.52;99636.16;4907962;28;44844;-91
2021/08/07 13:15:16;;;;;;;;;87.00;83.17;;;;;23.24;48.95;99682.38;4886511;29;45311;-92
2021/08/07 13:17:43;;;;;;;;;42.60;37.60;;;;;22.87;48.94;99614.84;4895658;29;44852;-91
2021/08/07 13:20:10;;;;;;;;;85.17;81.00;;;;;23.27;49.11;99677.41;4907858;28;44854;-92
2021/08/07 13:22:35;;;;;;;;;80.83;76.17;;;;;23.28;50.00;99680.94;4911293;28;44792;-92
2021/08/07 13:25:02;;;;;;;;;80.00;75.40;;;;;22.94;49.61;99635.50;4944821;28;46838;-92
2021/08/07 13:27:44;;;;;;;;;113.25;113.25;;;;;23.27;49.03;99704.53;4959149;28;44796;-91